Time;durP1;ratioP1;P1;durP2;ratioP2;P2;SDS_P1;SDS_P2;PMS_P1;PMS_P2;Temp;Humidity;BMP_temperature;BMP_pressure;BME280_temperature;BME280_humidity;BME280_pressure;Samples;Min_cycle;Max_cycle;Signal;HPM_P1;HPM_P2
2021/03/10 00:02:26;;;;;;;19.42;17.05;;;5.40;99.90;;;;;;4910061;29;20269;-79
2021/03/10 00:04:52;;;;;;;18.58;16.60;;;5.40;99.90;;;;;;4910016;29;20219;-79
2021/03/10 00:07:19;;;;;;;18.35;16.27;;;5.40;99.90;;;;;;4910258;29;20211;-79
2021/03/10 00:09:45;;;;;;;20.88;16.05;;;5.20;99.90;;;;;;4909366;29;20211;-79
2021/03/10 00:12:12;;;;;;;20.02;17.50;;;5.20;99.90;;;;;;4909167;29;20257;-79
2021/03/10 00:14:38;;;;;;;21.15;17.48;;;5.20;99.90;;;;;;4910457;29;20714;-79
2021/03/10 00:17:04;;;;;;;23.15;18.25;;;5.00;99.90;;;;;;4910454;29;20215;-78
2021/03/10 00:19:30;;;;;;;23.40;18.48;;;5.00;99.90;;;;;;4911444;29;20203;-79
2021/03/10 00:21:57;;;;;;;21.00;18.80;;;5.00;99.90;;;;;;4911179;29;20231;-79
2021/03/10 00:24:24;;;;;;;21.67;18.15;;;4.90;99.90;;;;;;4910987;29;20391;-79
2021/03/10 00:26:50;;;;;;;21.73;19.40;;;4.80;99.90;;;;;;4910484;29;20214;-79
2021/03/10 00:29:16;;;;;;;27.10;19.42;;;4.50;99.90;;;;;;4911571;29;20207;-79
2021/03/10 00:31:43;;;;;;;26.75;19.13;;;4.20;99.90;;;;;;4911000;29;20293;-78
2021/03/10 00:34:09;;;;;;;29.17;19.27;;;4.20;99.90;;;;;;4911411;29;20304;-78
2021/03/10 00:36:35;;;;;;;24.38;20.58;;;4.20;99.90;;;;;;4911336;29;20211;-79
2021/03/10 00:39:02;;;;;;;26.83;21.60;;;4.10;99.90;;;;;;4909417;29;20218;-78
2021/03/10 00:41:29;;;;;;;27.10;20.80;;;4.10;99.90;;;;;;4907966;29;20234;-78
2021/03/10 00:43:56;;;;;;;32.17;21.75;;;4.20;99.90;;;;;;4907812;29;20302;-78
2021/03/10 00:46:22;;;;;;;30.48;22.83;;;4.20;99.90;;;;;;4907109;29;20237;-79
2021/03/10 00:48:48;;;;;;;30.23;21.02;;;4.20;99.90;;;;;;4907649;29;20741;-78
2021/03/10 00:51:14;;;;;;;34.17;23.92;;;4.20;99.90;;;;;;4906908;29;20258;-78
2021/03/10 00:53:42;;;;;;;28.35;22.15;;;4.20;99.90;;;;;;4906017;29;20211;-78
2021/03/10 00:56:08;;;;;;;39.92;23.50;;;4.30;99.90;;;;;;4905582;29;20680;-79
2021/03/10 00:58:35;;;;;;;31.30;23.42;;;4.20;99.90;;;;;;4906587;29;20306;-78
2021/03/10 01:01:01;;;;;;;29.52;25.23;;;4.30;99.90;;;;;;4905201;29;20234;-79
2021/03/10 01:03:27;;;;;;;29.98;22.00;;;4.40;99.90;;;;;;4905794;29;20231;-78
2021/03/10 01:05:54;;;;;;;28.27;20.27;;;4.50;99.90;;;;;;4905958;29;20219;-78
2021/03/10 01:08:20;;;;;;;29.48;24.70;;;4.60;99.90;;;;;;4905470;29;20297;-78
2021/03/10 01:10:47;;;;;;;33.33;24.27;;;4.60;99.90;;;;;;4905571;29;20289;-78
2021/03/10 01:13:14;;;;;;;25.85;20.90;;;4.60;99.90;;;;;;4904071;29;20209;-78
2021/03/10 01:15:41;;;;;;;29.80;22.13;;;4.60;99.90;;;;;;4903023;29;20218;-78
2021/03/10 01:18:07;;;;;;;30.92;23.85;;;4.60;99.90;;;;;;4902156;29;20683;-78
2021/03/10 01:20:34;;;;;;;32.60;22.00;;;4.60;99.90;;;;;;4902687;29;20739;-78
2021/03/10 01:23:00;;;;;;;32.75;21.80;;;4.50;99.90;;;;;;4902797;29;20231;-78
2021/03/10 01:25:28;;;;;;;27.33;21.90;;;4.60;99.90;;;;;;4900931;29;20224;-78
2021/03/10 01:27:54;;;;;;;31.80;22.55;;;4.60;99.90;;;;;;4900879;29;20214;-78
2021/03/10 01:30:22;;;;;;;32.17;22.77;;;4.70;99.90;;;;;;4901973;29;20221;-78
2021/03/10 01:32:49;;;;;;;33.70;22.42;;;4.80;99.90;;;;;;4895234;29;20215;-78
2021/03/10 01:35:15;;;;;;;26.67;22.38;;;4.70;99.90;;;;;;4903362;29;20257;-78
2021/03/10 01:37:41;;;;;;;32.20;21.70;;;4.80;99.90;;;;;;4902508;29;20215;-78
2021/03/10 01:40:11;;;;;;;29.05;21.42;;;4.80;99.90;;;;;;4901814;29;20218;-78
2021/03/10 01:42:37;;;;;;;31.10;22.15;;;4.80;99.90;;;;;;4902055;29;20214;-78
2021/03/10 01:45:04;;;;;;;30.15;21.20;;;4.70;99.90;;;;;;4905700;29;20215;-78
2021/03/10 01:47:32;;;;;;;28.63;22.73;;;4.70;99.90;;;;;;4905801;29;20626;-78
2021/03/10 01:50:00;;;;;;;28.67;21.88;;;4.60;99.90;;;;;;4906688;29;20218;-78
2021/03/10 01:52:27;;;;;;;31.13;23.02;;;4.50;99.90;;;;;;4901011;29;20235;-78
2021/03/10 01:54:53;;;;;;;26.85;20.95;;;4.60;99.90;;;;;;4900297;29;20221;-78
2021/03/10 01:57:19;;;;;;;32.05;21.60;;;4.50;99.90;;;;;;4901367;29;20231;-78
2021/03/10 01:59:46;;;;;;;29.90;21.73;;;4.40;99.90;;;;;;4900966;29;20218;-78
2021/03/10 02:02:12;;;;;;;27.35;22.65;;;4.30;99.90;;;;;;4901038;29;20234;-78
2021/03/10 02:04:39;;;;;;;32.15;21.80;;;4.30;99.90;;;;;;4900538;29;20703;-78
2021/03/10 02:07:12;;;;;;;30.95;23.58;;;4.20;99.90;;;;;;4900517;29;20211;-78
2021/03/10 02:09:49;;;;;;;28.92;21.13;;;4.20;99.90;;;;;;4900160;29;20210;-78
2021/03/10 02:12:25;;;;;;;30.00;22.80;;;4.10;99.90;;;;;;4899406;29;20719;-78
2021/03/10 02:14:57;;;;;;;27.70;21.95;;;4.00;99.90;;;;;;4892956;29;20285;-78
2021/03/10 02:17:29;;;;;;;27.70;21.08;;;4.00;99.90;;;;;;4899948;29;20258;-78
2021/03/10 02:20:12;;;;;;;25.40;20.77;;;4.00;99.90;;;;;;4899483;29;20238;-78
2021/03/10 02:23:10;;;;;;;32.13;23.63;;;3.90;99.90;;;;;;4899737;29;20215;-78
2021/03/10 02:25:52;;;;;;;33.28;23.80;;;3.90;99.90;;;;;;4883650;29;20301;-78
2021/03/10 02:28:19;;;;;;;36.05;24.10;;;3.90;99.90;;;;;;4905732;29;20262;-77
2021/03/10 02:30:49;;;;;;;36.05;25.27;;;3.90;99.90;;;;;;4908619;29;20256;-77
2021/03/10 02:33:20;;;;;;;31.38;24.08;;;3.90;99.90;;;;;;4907148;29;20583;-78
2021/03/10 02:35:52;;;;;;;36.88;22.88;;;3.90;99.90;;;;;;4894900;29;20241;-78
2021/03/10 02:38:22;;;;;;;39.10;23.60;;;4.00;99.90;;;;;;4902149;29;20220;-78
2021/03/10 02:40:51;;;;;;;37.53;24.30;;;4.00;99.90;;;;;;4894342;29;20234;-78
2021/03/10 02:43:19;;;;;;;36.08;25.35;;;4.10;99.90;;;;;;4901344;29;20230;-78
2021/03/10 02:45:45;;;;;;;38.20;25.13;;;4.10;99.90;;;;;;4900790;29;20555;-78
2021/03/10 02:48:13;;;;;;;35.58;24.80;;;4.20;99.90;;;;;;4900338;29;20240;-78
2021/03/10 02:50:40;;;;;;;35.75;26.70;;;4.30;99.90;;;;;;4899981;29;20227;-78
2021/03/10 02:53:08;;;;;;;44.10;27.98;;;4.30;99.90;;;;;;4899812;29;20221;-78
2021/03/10 02:55:34;;;;;;;41.97;28.52;;;4.40;99.90;;;;;;4899352;29;20222;-78
2021/03/10 02:58:01;;;;;;;39.78;26.27;;;4.50;99.90;;;;;;4899996;29;20218;-78
2021/03/10 03:00:30;;;;;;;35.75;26.00;;;4.50;99.90;;;;;;4900292;29;20245;-78
2021/03/10 03:02:56;;;;;;;40.45;25.73;;;4.60;99.90;;;;;;4899826;29;20219;-78
2021/03/10 03:05:22;;;;;;;31.23;22.60;;;4.70;99.90;;;;;;4900433;29;20217;-78
2021/03/10 03:07:49;;;;;;;29.58;22.35;;;4.60;99.90;;;;;;4899849;29;20217;-78
2021/03/10 03:10:19;;;;;;;34.97;26.27;;;4.50;99.90;;;;;;4898949;29;20306;-78
2021/03/10 03:12:46;;;;;;;34.47;24.42;;;4.50;99.90;;;;;;4898749;29;20230;-78
2021/03/10 03:15:15;;;;;;;37.13;23.80;;;4.50;99.90;;;;;;4898786;29;20229;-78
2021/03/10 03:17:43;;;;;;;30.95;23.40;;;4.60;99.90;;;;;;4898479;29;20683;-78
2021/03/10 03:20:10;;;;;;;31.42;23.70;;;4.60;99.90;;;;;;4898890;29;20451;-78
2021/03/10 03:22:42;;;;;;;36.78;24.48;;;4.50;99.90;;;;;;4898228;29;20215;-78
2021/03/10 03:25:12;;;;;;;36.03;25.10;;;4.50;99.90;;;;;;4900344;29;20262;-78
2021/03/10 03:27:39;;;;;;;35.53;24.33;;;4.60;99.90;;;;;;4903230;29;20219;-78
2021/03/10 03:30:08;;;;;;;32.42;23.60;;;4.60;99.90;;;;;;4902860;29;20218;-78
2021/03/10 03:32:36;;;;;;;37.05;24.35;;;4.70;99.90;;;;;;4902570;29;20215;-78
2021/03/10 03:35:05;;;;;;;31.17;22.52;;;4.70;99.90;;;;;;4902886;29;20207;-78
2021/03/10 03:37:31;;;;;;;34.38;25.58;;;4.80;99.90;;;;;;4902847;29;20211;-78
2021/03/10 03:39:58;;;;;;;42.33;25.95;;;4.80;99.90;;;;;;4902120;29;20218;-78
2021/03/10 03:42:24;;;;;;;32.33;23.92;;;4.80;99.90;;;;;;4902269;29;20235;-78
2021/03/10 03:44:51;;;;;;;34.10;24.90;;;4.80;99.90;;;;;;4902798;29;20238;-77
2021/03/10 03:47:18;;;;;;;31.25;22.52;;;4.90;99.90;;;;;;4902914;29;20642;-78
2021/03/10 03:49:46;;;;;;;35.05;23.50;;;4.80;99.90;;;;;;4903559;29;20214;-78
2021/03/10 03:52:14;;;;;;;32.88;23.75;;;4.90;99.90;;;;;;4906555;29;20233;-78
2021/03/10 03:54:40;;;;;;;34.03;22.25;;;4.90;99.90;;;;;;4903865;29;20222;-78
2021/03/10 03:57:07;;;;;;;29.83;23.38;;;4.90;99.90;;;;;;4904020;29;20323;-78
2021/03/10 03:59:33;;;;;;;35.03;26.00;;;4.90;99.90;;;;;;4903235;29;20672;-78
2021/03/10 04:01:59;;;;;;;33.78;23.35;;;4.90;99.90;;;;;;4902658;29;20235;-78
2021/03/10 04:04:26;;;;;;;41.45;27.42;;;4.90;99.90;;;;;;4902978;29;20285;-78
2021/03/10 04:06:52;;;;;;;38.58;24.98;;;4.90;99.90;;;;;;4903015;29;20211;-78
2021/03/10 04:09:19;;;;;;;32.33;26.67;;;4.90;99.90;;;;;;4902869;29;20211;-78
2021/03/10 04:11:46;;;;;;;32.53;24.45;;;4.80;99.90;;;;;;4894603;29;20240;-78
2021/03/10 04:14:14;;;;;;;38.42;25.35;;;4.80;99.90;;;;;;4902312;29;20564;-78
2021/03/10 04:16:40;;;;;;;36.72;26.55;;;4.80;99.90;;;;;;4902750;29;20221;-78
2021/03/10 04:19:08;;;;;;;38.33;26.33;;;4.70;99.90;;;;;;4903283;29;20213;-78
2021/03/10 04:21:34;;;;;;;36.78;26.10;;;4.70;99.90;;;;;;4902788;29;20242;-78
2021/03/10 04:24:01;;;;;;;39.70;27.40;;;4.70;99.90;;;;;;4902895;29;20254;-78
2021/03/10 04:26:28;;;;;;;41.00;26.88;;;4.60;99.90;;;;;;4895235;29;20222;-78
2021/03/10 04:28:54;;;;;;;41.55;26.27;;;4.70;99.90;;;;;;4902718;29;20223;-78
2021/03/10 04:31:20;;;;;;;38.65;25.50;;;4.70;99.90;;;;;;4902648;29;20239;-78
2021/03/10 04:33:47;;;;;;;37.22;27.20;;;4.70;99.90;;;;;;4903343;29;20232;-78
2021/03/10 04:36:13;;;;;;;37.28;27.23;;;4.60;99.90;;;;;;4903286;29;20211;-78
2021/03/10 04:38:39;;;;;;;35.85;25.00;;;4.70;99.90;;;;;;4904091;29;20222;-78
2021/03/10 04:41:06;;;;;;;40.90;27.85;;;4.70;99.90;;;;;;4903918;29;20230;-78
2021/03/10 04:43:33;;;;;;;45.38;28.42;;;4.60;99.90;;;;;;4902838;29;20720;-78
2021/03/10 04:45:59;;;;;;;40.28;26.55;;;4.50;99.90;;;;;;4903042;29;20306;-78
2021/03/10 04:48:25;;;;;;;37.83;26.85;;;4.60;99.90;;;;;;4903069;29;20226;-78
2021/03/10 04:50:52;;;;;;;38.22;28.33;;;4.50;99.90;;;;;;4903013;29;20243;-78
2021/03/10 04:53:18;;;;;;;36.97;23.83;;;4.60;99.90;;;;;;4902978;29;20214;-78
2021/03/10 04:55:44;;;;;;;33.25;24.63;;;4.50;99.90;;;;;;4904350;29;20658;-78
2021/03/10 04:58:10;;;;;;;35.67;25.20;;;4.50;99.90;;;;;;4910894;29;20214;-78
2021/03/10 05:00:38;;;;;;;39.42;29.10;;;4.50;99.90;;;;;;4910841;29;20227;-79
2021/03/10 05:03:04;;;;;;;34.33;24.92;;;4.50;99.90;;;;;;4910651;29;20241;-78
2021/03/10 05:05:30;;;;;;;35.55;25.15;;;4.50;99.90;;;;;;4911114;29;20220;-79
2021/03/10 05:07:57;;;;;;;39.47;27.25;;;4.50;99.90;;;;;;4911251;29;20207;-78
2021/03/10 05:10:23;;;;;;;38.55;26.73;;;4.40;99.90;;;;;;4910920;29;20220;-78
2021/03/10 05:12:49;;;;;;;40.80;28.73;;;4.40;99.90;;;;;;4911148;29;20302;-78
2021/03/10 05:15:16;;;;;;;40.28;27.48;;;4.50;99.90;;;;;;4910208;29;20214;-78
2021/03/10 05:17:43;;;;;;;38.08;25.40;;;4.50;99.90;;;;;;4911928;29;20213;-79
2021/03/10 05:20:11;;;;;;;35.15;27.88;;;4.50;99.90;;;;;;4911428;29;20219;-78
2021/03/10 05:22:38;;;;;;;40.17;27.15;;;4.50;99.90;;;;;;4910887;29;20215;-78
2021/03/10 05:25:05;;;;;;;40.10;29.08;;;4.60;99.90;;;;;;4910222;29;20793;-79
2021/03/10 05:27:31;;;;;;;37.25;26.63;;;4.60;99.90;;;;;;4910790;29;20217;-78
2021/03/10 05:29:58;;;;;;;35.60;24.95;;;4.70;99.90;;;;;;4910877;29;20210;-79
2021/03/10 05:32:24;;;;;;;41.10;25.83;;;4.70;99.90;;;;;;4910780;29;20248;-79
2021/03/10 05:34:51;;;;;;;36.22;26.85;;;4.70;99.90;;;;;;4910330;29;20207;-79
2021/03/10 05:37:18;;;;;;;37.22;27.02;;;4.70;99.90;;;;;;4910519;29;20210;-79
2021/03/10 05:39:44;;;;;;;35.72;26.58;;;4.80;99.90;;;;;;4911380;29;20215;-78
2021/03/10 05:42:11;;;;;;;41.17;25.90;;;4.80;99.90;;;;;;4909351;29;20303;-78
2021/03/10 05:44:37;;;;;;;42.33;28.30;;;4.80;99.90;;;;;;4910513;29;20235;-78
2021/03/10 05:47:05;;;;;;;38.42;28.92;;;4.80;99.90;;;;;;4909453;29;20222;-79
2021/03/10 05:49:32;;;;;;;39.50;25.67;;;4.80;99.90;;;;;;4908723;29;20228;-78
2021/03/10 05:52:03;;;;;;;38.25;25.88;;;4.70;99.90;;;;;;4910184;29;20231;-78
2021/03/10 05:54:31;;;;;;;37.33;24.60;;;4.80;99.90;;;;;;4909807;29;20657;-78
2021/03/10 05:57:01;;;;;;;31.90;24.77;;;4.70;99.90;;;;;;4910720;29;20215;-78
2021/03/10 05:59:28;;;;;;;40.47;26.27;;;4.70;99.90;;;;;;4910579;29;20683;-78
2021/03/10 06:01:54;;;;;;;37.88;26.45;;;4.60;99.90;;;;;;4909646;29;20234;-78
2021/03/10 06:04:20;;;;;;;40.55;27.00;;;4.50;99.90;;;;;;4909373;29;20235;-78
2021/03/10 06:06:47;;;;;;;37.50;26.92;;;4.60;99.90;;;;;;4909517;29;20215;-79
2021/03/10 06:09:16;;;;;;;41.17;31.38;;;4.40;99.90;;;;;;4908211;29;20221;-79
2021/03/10 06:11:53;;;;;;;42.60;27.75;;;4.40;99.90;;;;;;4909389;29;20235;-78
2021/03/10 06:14:19;;;;;;;45.38;29.38;;;4.40;99.90;;;;;;4906694;29;20195;-78
2021/03/10 06:16:46;;;;;;;38.50;28.08;;;4.40;99.90;;;;;;4907118;29;20573;-78
2021/03/10 06:19:12;;;;;;;46.05;29.33;;;4.50;99.90;;;;;;4906436;29;20211;-78
2021/03/10 06:21:48;;;;;;;41.72;26.90;;;4.40;99.90;;;;;;4906852;29;20231;-78
2021/03/10 06:24:16;;;;;;;41.38;28.45;;;4.40;99.90;;;;;;4907484;29;20244;-78
2021/03/10 06:26:53;;;;;;;36.25;26.65;;;4.50;99.90;;;;;;4908424;29;20211;-78
2021/03/10 06:29:19;;;;;;;38.95;25.85;;;4.50;99.90;;;;;;4907433;29;20218;-78
2021/03/10 06:31:46;;;;;;;44.20;24.75;;;4.40;99.90;;;;;;4907796;29;20237;-78
2021/03/10 06:34:14;;;;;;;38.72;25.98;;;4.40;99.90;;;;;;4907754;29;20207;-78
2021/03/10 06:36:42;;;;;;;39.25;26.45;;;4.50;99.90;;;;;;4907590;29;20226;-78
2021/03/10 06:39:12;;;;;;;39.85;26.35;;;4.60;99.90;;;;;;4908813;29;20214;-78
2021/03/10 06:41:41;;;;;;;38.75;27.08;;;4.60;99.90;;;;;;4908494;29;20248;-78
2021/03/10 06:44:18;;;;;;;36.35;25.50;;;4.70;99.90;;;;;;4908146;29;20227;-78
2021/03/10 06:46:52;;;;;;;32.15;23.38;;;4.80;99.90;;;;;;4908863;29;20222;-78
2021/03/10 06:49:18;;;;;;;35.00;26.13;;;4.70;99.90;;;;;;4908848;29;20214;-79
2021/03/10 06:51:52;;;;;;;38.60;25.27;;;4.80;99.90;;;;;;4908600;29;20235;-78
2021/03/10 06:54:19;;;;;;;38.35;24.08;;;4.80;99.90;;;;;;4907669;29;20215;-78
2021/03/10 06:56:57;;;;;;;33.70;23.67;;;4.90;99.90;;;;;;4908521;29;20683;-78
2021/03/10 06:59:23;;;;;;;32.78;23.35;;;4.90;99.90;;;;;;4910361;29;20289;-78
2021/03/10 07:01:50;;;;;;;34.90;27.17;;;4.90;99.90;;;;;;4913727;29;20237;-80
2021/03/10 07:04:16;;;;;;;36.03;24.40;;;5.10;99.90;;;;;;4916189;29;20231;-80
2021/03/10 07:06:43;;;;;;;34.00;24.77;;;5.10;99.90;;;;;;4915325;29;20206;-80
2021/03/10 07:09:13;;;;;;;32.78;23.02;;;5.10;99.90;;;;;;4916571;29;20214;-80
2021/03/10 07:11:40;;;;;;;41.58;26.38;;;5.00;99.90;;;;;;4916041;29;20230;-80
2021/03/10 07:14:10;;;;;;;37.13;26.15;;;5.00;99.90;;;;;;4916923;29;20214;-81
2021/03/10 07:16:37;;;;;;;34.17;26.38;;;5.00;99.90;;;;;;4916406;29;20213;-80
2021/03/10 07:19:06;;;;;;;33.17;23.85;;;5.10;99.90;;;;;;4916521;29;20206;-80
2021/03/10 07:21:35;;;;;;;39.97;25.20;;;5.20;99.90;;;;;;4916274;29;20230;-80
2021/03/10 07:24:03;;;;;;;32.47;23.00;;;5.20;99.90;;;;;;4915459;29;20230;-80
2021/03/10 07:26:30;;;;;;;34.90;23.10;;;5.20;99.90;;;;;;4915785;29;20210;-80
2021/03/10 07:29:03;;;;;;;33.75;22.13;;;5.30;99.90;;;;;;4915356;29;20225;-80
2021/03/10 07:31:30;;;;;;;32.22;24.90;;;5.40;99.90;;;;;;4914483;29;20267;-80
2021/03/10 07:33:58;;;;;;;34.78;24.15;;;5.50;99.90;;;;;;4913716;29;20729;-79
2021/03/10 07:36:35;;;;;;;32.42;22.63;;;5.60;99.90;;;;;;4918134;29;20738;-80
2021/03/10 07:39:03;;;;;;;28.02;24.38;;;5.70;99.90;;;;;;4918245;29;20218;-80
2021/03/10 07:41:38;;;;;;;36.22;25.55;;;5.90;99.90;;;;;;4916077;29;20227;-80
2021/03/10 07:44:25;;;;;;;35.13;23.38;;;6.00;99.90;;;;;;4914490;29;20233;-80
2021/03/10 07:47:05;;;;;;;28.73;21.92;;;6.20;99.90;;;;;;4915274;29;20202;-80
2021/03/10 07:49:31;;;;;;;29.33;21.98;;;6.20;99.90;;;;;;4921312;29;20211;-80
2021/03/10 07:52:06;;;;;;;34.72;21.15;;;6.30;99.90;;;;;;4925420;29;20227;-80
2021/03/10 07:54:33;;;;;;;35.63;25.05;;;6.20;99.90;;;;;;4923553;29;20207;-80
2021/03/10 07:57:08;;;;;;;30.83;23.42;;;6.00;99.90;;;;;;4921577;29;20217;-80
2021/03/10 07:59:34;;;;;;;27.40;21.85;;;6.00;99.90;;;;;;4921618;29;20210;-80
2021/03/10 08:02:02;;;;;;;34.72;22.65;;;6.10;99.90;;;;;;4923768;29;20230;-79
2021/03/10 08:04:29;;;;;;;35.75;22.38;;;6.20;99.90;;;;;;4926540;29;20224;-80
2021/03/10 08:06:55;;;;;;;33.03;21.33;;;6.30;99.90;;;;;;4922316;29;20218;-80
2021/03/10 08:09:22;;;;;;;29.88;22.23;;;6.40;99.90;;;;;;4922076;29;20261;-80
2021/03/10 08:12:05;;;;;;;30.73;23.30;;;6.50;99.90;;;;;;4922761;29;20898;-79
2021/03/10 08:14:39;;;;;;;36.13;23.77;;;6.50;99.90;;;;;;4922105;29;20203;-81
2021/03/10 08:17:07;;;;;;;35.80;25.27;;;6.60;99.90;;;;;;4917233;29;20211;-82
2021/03/10 08:19:33;;;;;;;29.48;22.92;;;6.70;99.90;;;;;;4912786;29;20199;-82
2021/03/10 08:22:02;;;;;;;29.25;23.58;;;6.80;99.90;;;;;;4926154;29;20230;-82
2021/03/10 08:24:29;;;;;;;32.25;23.08;;;6.80;99.90;;;;;;4928339;29;20230;-82
2021/03/10 08:26:57;;;;;;;32.13;24.10;;;6.80;99.90;;;;;;4931396;29;20213;-82
2021/03/10 08:29:24;;;;;;;31.15;23.17;;;6.90;99.90;;;;;;4947210;29;20213;-82
2021/03/10 08:31:52;;;;;;;30.67;22.80;;;6.90;99.90;;;;;;4946437;29;20337;-82
2021/03/10 08:34:31;;;;;;;34.42;22.52;;;6.90;99.90;;;;;;4947253;29;20208;-82
2021/03/10 08:36:58;;;;;;;30.98;21.40;;;7.00;99.90;;;;;;4948000;29;20206;-81
2021/03/10 08:39:25;;;;;;;31.83;23.20;;;7.10;99.90;;;;;;4945649;29;20276;-82
2021/03/10 08:41:53;;;;;;;28.52;21.63;;;7.20;99.90;;;;;;4945390;29;20240;-82
2021/03/10 08:44:22;;;;;;;30.90;22.27;;;7.10;99.90;;;;;;4944750;29;20265;-82
2021/03/10 08:46:48;;;;;;;33.58;24.67;;;7.10;99.90;;;;;;4944249;29;20206;-81
2021/03/10 08:49:20;;;;;;;34.00;20.90;;;7.10;99.90;;;;;;4943756;29;20206;-82
2021/03/10 08:51:48;;;;;;;32.83;25.27;;;7.20;99.90;;;;;;4947959;29;20234;-83
2021/03/10 08:54:16;;;;;;;31.13;22.08;;;7.30;99.90;;;;;;4943685;29;20218;-81
2021/03/10 08:56:49;;;;;;;36.10;23.92;;;7.20;99.90;;;;;;4943852;29;20237;-81
2021/03/10 08:59:15;;;;;;;31.45;23.02;;;7.00;99.90;;;;;;4943482;29;20752;-83
2021/03/10 09:01:46;;;;;;;28.92;21.75;;;6.90;99.90;;;;;;4944101;29;20225;-81
2021/03/10 09:04:20;;;;;;;32.47;23.10;;;6.90;99.90;;;;;;4943605;29;20692;-81
2021/03/10 09:06:47;;;;;;;32.88;22.55;;;6.90;99.90;;;;;;4943567;29;20222;-82
2021/03/10 09:09:14;;;;;;;31.95;21.95;;;7.10;99.90;;;;;;4943590;29;20616;-80
2021/03/10 09:11:43;;;;;;;29.92;22.90;;;7.20;99.90;;;;;;4943859;29;20234;-83
2021/03/10 09:14:09;;;;;;;35.38;23.13;;;7.20;99.90;;;;;;4947996;29;20268;-81
2021/03/10 09:16:36;;;;;;;32.53;22.65;;;7.20;99.90;;;;;;4950713;29;20218;-82
2021/03/10 09:19:03;;;;;;;33.15;23.52;;;7.20;99.90;;;;;;4953145;29;20700;-82
2021/03/10 09:21:39;;;;;;;31.15;21.48;;;7.30;99.90;;;;;;4955802;29;20241;-81
2021/03/10 09:24:06;;;;;;;33.50;24.67;;;7.40;99.90;;;;;;4955781;29;20236;-81
2021/03/10 09:26:39;;;;;;;29.80;20.83;;;7.50;99.90;;;;;;4955125;29;20206;-83
2021/03/10 09:29:06;;;;;;;27.52;22.17;;;7.60;99.90;;;;;;4953572;29;20237;-81
2021/03/10 09:31:33;;;;;;;32.53;20.73;;;7.50;99.90;;;;;;4955416;29;20226;-81
2021/03/10 09:34:02;;;;;;;33.50;23.05;;;7.70;99.90;;;;;;4955403;29;20195;-81
2021/03/10 09:36:28;;;;;;;31.63;22.65;;;7.70;99.90;;;;;;4954822;29;20206;-80
2021/03/10 09:38:55;;;;;;;35.78;21.40;;;7.90;99.90;;;;;;4954003;29;20237;-80
2021/03/10 09:41:56;;;;;;;31.23;23.30;;;7.90;99.90;;;;;;4955812;29;20262;-81
2021/03/10 09:44:23;;;;;;;31.98;19.80;;;8.00;99.90;;;;;;4950855;29;20261;-81
2021/03/10 09:46:49;;;;;;;32.47;23.25;;;7.80;99.90;;;;;;4953201;29;20221;-82
2021/03/10 09:56:14;;;;;;;25.55;18.77;;;8.00;99.90;;;;;;4896006;29;20207;-81
2021/03/10 09:59:14;;;;;;;22.90;15.90;;;8.10;99.50;;;;;;4931250;29;20301;-82
2021/03/10 10:02:03;;;;;;;23.58;16.67;;;8.00;98.60;;;;;;4933571;29;20250;-81
2021/03/10 10:08:08;;;;;;;;;;;;;;;;;;;;;
2021/03/10 10:10:41;;;;;;;24.65;16.60;;;8.10;98.40;;;;;;4848137;29;20484;-82
2021/03/10 10:13:08;;;;;;;23.42;15.63;;;8.30;97.80;;;;;;4931717;29;20211;-82
2021/03/10 10:15:35;;;;;;;26.77;16.85;;;8.30;97.20;;;;;;4930264;29;20217;-81
2021/03/10 10:18:04;;;;;;;13.93;10.73;;;8.50;97.10;;;;;;4932021;29;20207;-81
2021/03/10 10:20:33;;;;;;;16.42;11.57;;;8.40;94.80;;;;;;4929316;29;20230;-81
2021/03/10 10:22:59;;;;;;;16.25;11.82;;;8.30;94.20;;;;;;4929951;29;20594;-81
2021/03/10 10:25:27;;;;;;;15.98;9.52;;;8.30;94.30;;;;;;4930343;29;20266;-81
2021/03/10 10:27:54;;;;;;;13.55;11.27;;;8.10;93.50;;;;;;4932840;29;20194;-81
2021/03/10 10:30:21;;;;;;;12.07;9.38;;;8.10;94.20;;;;;;4932740;29;20837;-82
2021/03/10 10:32:49;;;;;;;11.82;9.90;;;8.20;94.10;;;;;;4929772;29;20211;-81
2021/03/10 10:35:17;;;;;;;13.70;10.00;;;8.40;93.90;;;;;;4935863;29;20226;-81
2021/03/10 10:37:44;;;;;;;16.60;12.18;;;8.30;93.30;;;;;;4936909;29;20274;-80
2021/03/10 10:40:12;;;;;;;12.25;10.05;;;7.90;93.30;;;;;;4937219;29;20278;-81
2021/03/10 10:42:38;;;;;;;19.60;12.25;;;7.80;93.30;;;;;;4935330;29;20241;-80
2021/03/10 10:45:07;;;;;;;22.85;15.18;;;7.70;94.30;;;;;;4933504;29;20213;-81
2021/03/10 10:47:34;;;;;;;20.50;14.35;;;7.80;95.60;;;;;;4930470;29;20221;-82
2021/03/10 10:50:04;;;;;;;14.23;11.65;;;7.90;96.10;;;;;;4927924;29;20210;-81
2021/03/10 10:52:32;;;;;;;18.65;12.80;;;7.80;95.00;;;;;;4928808;29;20746;-82
2021/03/10 10:54:58;;;;;;;17.50;13.02;;;7.80;95.30;;;;;;4932700;29;20241;-80
2021/03/10 10:57:24;;;;;;;14.20;10.13;;;7.80;95.20;;;;;;4922612;29;20210;-82
2021/03/10 10:59:52;;;;;;;11.00;9.45;;;8.00;94.80;;;;;;4919825;29;20210;-83
2021/03/10 11:02:18;;;;;;;11.45;8.10;;;8.10;94.40;;;;;;4917292;29;20234;-80
2021/03/10 11:04:45;;;;;;;10.38;9.13;;;8.10;92.70;;;;;;4916417;29;20238;-82
2021/03/10 11:07:12;;;;;;;10.07;7.40;;;8.20;92.20;;;;;;4917037;29;20214;-82
2021/03/10 11:09:40;;;;;;;9.18;7.20;;;8.40;92.10;;;;;;4917186;29;20274;-83
2021/03/10 11:12:09;;;;;;;4.28;3.88;;;8.80;91.20;;;;;;4917242;29;20506;-83
2021/03/10 11:14:35;;;;;;;5.65;4.45;;;9.20;87.30;;;;;;4917789;29;20209;-82
2021/03/10 11:17:02;;;;;;;7.70;5.20;;;9.40;85.00;;;;;;4920680;29;20208;-85
2021/03/10 11:19:29;;;;;;;5.75;4.68;;;9.60;81.70;;;;;;4921194;29;20882;-85
2021/03/10 11:21:55;;;;;;;6.33;3.77;;;9.50;81.90;;;;;;4920305;29;20297;-84
2021/03/10 11:24:22;;;;;;;9.70;4.10;;;9.50;81.30;;;;;;4921913;29;20488;-85
2021/03/10 11:26:50;;;;;;;5.10;4.53;;;9.60;82.00;;;;;;4922006;29;20479;-84
2021/03/10 11:29:16;;;;;;;8.23;4.77;;;10.00;78.40;;;;;;4921417;29;20463;-83
2021/03/10 11:31:44;;;;;;;4.60;4.20;;;10.20;76.80;;;;;;4919532;29;20471;-84
2021/03/10 11:34:11;;;;;;;4.97;4.57;;;10.00;77.10;;;;;;4923108;29;20208;-84
2021/03/10 11:36:37;;;;;;;5.17;4.63;;;10.10;76.60;;;;;;4924433;29;20212;-84
2021/03/10 11:39:04;;;;;;;5.23;4.23;;;10.10;76.40;;;;;;4923479;29;20461;-83
2021/03/10 11:41:31;;;;;;;5.97;5.25;;;10.00;76.90;;;;;;4921697;29;20479;-84
2021/03/10 11:43:57;;;;;;;4.50;4.10;;;9.30;77.80;;;;;;4921423;29;20233;-83
2021/03/10 11:46:23;;;;;;;6.15;4.28;;;9.00;78.40;;;;;;4922311;29;20219;-83
2021/03/10 11:48:50;;;;;;;5.43;4.57;;;8.90;78.80;;;;;;4924604;29;20230;-83
2021/03/10 11:51:16;;;;;;;7.97;4.75;;;9.00;78.70;;;;;;4924874;29;20236;-84
2021/03/10 11:53:42;;;;;;;5.17;4.40;;;9.20;78.90;;;;;;4924691;29;20239;-83
2021/03/10 11:56:08;;;;;;;5.20;3.90;;;9.30;76.70;;;;;;4924956;29;20456;-83
2021/03/10 11:58:35;;;;;;;6.53;4.63;;;9.40;77.40;;;;;;4925363;29;20211;-83
2021/03/10 12:01:02;;;;;;;5.30;4.80;;;9.40;76.40;;;;;;4924935;29;20474;-83
2021/03/10 12:03:28;;;;;;;6.87;4.70;;;9.30;77.10;;;;;;4924224;29;20215;-83
2021/03/10 12:05:54;;;;;;;6.07;4.63;;;9.20;77.30;;;;;;4924004;29;20474;-83
2021/03/10 12:08:21;;;;;;;4.85;4.45;;;9.00;76.80;;;;;;4924673;29;20212;-83
2021/03/10 12:10:47;;;;;;;4.30;3.88;;;8.90;78.10;;;;;;4924225;29;20227;-84
2021/03/10 12:13:13;;;;;;;3.65;3.35;;;8.90;77.50;;;;;;4924250;29;20428;-83
2021/03/10 12:15:41;;;;;;;5.03;4.47;;;9.00;78.00;;;;;;4923796;29;20267;-84
2021/03/10 12:18:07;;;;;;;6.57;4.40;;;9.10;77.70;;;;;;4925571;29;20217;-84
2021/03/10 12:20:34;;;;;;;5.23;4.70;;;9.30;76.70;;;;;;4924366;29;20227;-83
2021/03/10 12:23:00;;;;;;;6.53;5.70;;;9.30;76.40;;;;;;4924003;29;20457;-83
2021/03/10 12:25:27;;;;;;;6.40;5.65;;;9.20;77.70;;;;;;4924288;29;20494;-84
2021/03/10 12:27:55;;;;;;;7.00;5.37;;;9.00;77.50;;;;;;4923180;29;20223;-83
2021/03/10 12:30:22;;;;;;;5.33;4.10;;;9.10;77.80;;;;;;4923980;29;20463;-84
2021/03/10 12:32:49;;;;;;;5.20;4.43;;;9.20;78.40;;;;;;4924580;29;20787;-83
2021/03/10 12:35:16;;;;;;;4.80;4.20;;;9.50;77.90;;;;;;4924498;29;20464;-81
2021/03/10 12:37:43;;;;;;;6.33;4.57;;;9.90;76.50;;;;;;4924169;29;20467;-81
2021/03/10 12:40:10;;;;;;;5.83;4.43;;;10.30;74.10;;;;;;4924877;29;20465;-82
2021/03/10 12:42:36;;;;;;;5.63;4.07;;;10.80;72.70;;;;;;4924122;29;20474;-81
2021/03/10 12:45:04;;;;;;;4.70;3.93;;;11.30;70.90;;;;;;4925923;29;20490;-81
2021/03/10 12:47:30;;;;;;;6.70;5.27;;;11.70;69.00;;;;;;4927726;29;20465;-81
2021/03/10 12:49:58;;;;;;;5.43;4.33;;;11.90;65.90;;;;;;4929765;29;20461;-81
2021/03/10 12:52:25;;;;;;;6.20;4.40;;;11.90;64.90;;;;;;4929073;29;20482;-81
2021/03/10 12:54:51;;;;;;;4.07;3.70;;;12.10;64.30;;;;;;4923970;29;20458;-81
2021/03/10 12:57:17;;;;;;;4.40;3.90;;;12.50;63.30;;;;;;4926767;29;20455;-81